Terminal Aerodrome Forecast
Issued by NWS

Home | Current Version | Previous Version | Text Only | Print | Product List | Glossary On
Versions: 1 2 3 4 5 6 7 8 9 10 11 12 13
291
FTUS45 KPSR 202320
TAFBLH
TAF
KBLH 202320Z 2100/2124 17014G20KT P6SM FEW250
     FM210200 22012KT P6SM SCT250
     FM210900 18008KT P6SM BKN250
      TEMPO 2111/2115 VRB05KT
     FM211800 19016G22KT P6SM BKN200=

USA.gov is the U.S. government's official web portal to all federal, state and local government web resources and services.